Terminal Aerodrome Forecast
Issued by NWS Newport/Morehead City, NC

Home | Current Version | Previous Version | Text Only | Print | Product List | Glossary Off
Versions: 1 2 3 4 5 6 7 8 9 10 11 12 13

196
FTUS42 KMHX 261724
TAFEWN
TAF
KEWN 261724Z 2618/2718 VRB06KT P6SM SCT060 SCT250
     FM270000 00000KT P6SM SKC
     FM270800 00000KT 5SM BR SCT150
     FM271600 02005KT P6SM SCT060 BKN150=

USA.gov is the U.S. government's official web portal to all federal, state and local government web resources and services.